Time;durP1;ratioP1;P1;durP2;ratioP2;P2;SDS_P1;SDS_P2;PMS_P1;PMS_P2;Temp;Humidity;BMP_temperature;BMP_pressure;BME280_temperature;BME280_humidity;BME280_pressure;Samples;Min_cycle;Max_cycle;Signal;HPM_P1;HPM_P2
2022/10/07 00:00:36;;;;;;;;;;;;;;;21.69;62.72;102026.50;7399922;19;1891;-42
2022/10/07 00:03:04;;;;;;;;;;;;;;;21.69;62.91;102009.50;7400156;19;1668;-42
2022/10/07 00:05:37;;;;;;;;;;;;;;;21.69;62.89;102021.13;7397186;19;1992;-42
2022/10/07 00:08:08;;;;;;;;;;;;;;;21.69;62.68;102028.34;7399213;19;1875;-42
2022/10/07 00:10:45;;;;;;;;;;;;;;;21.70;62.81;102025.50;7397751;19;1867;-42
2022/10/07 00:13:30;;;;;;;;;;;;;;;21.69;62.77;102015.75;7398316;19;1459;-43
2022/10/07 00:16:15;;;;;;;;;;;;;;;21.68;62.68;102023.94;7399839;19;1601;-42
2022/10/07 00:18:49;;;;;;;;;;;;;;;21.66;62.59;102029.44;7401383;19;1692;-42
2022/10/07 00:21:27;;;;;;;;;;;;;;;21.62;62.45;102028.81;7399889;19;1601;-42
2022/10/07 00:24:01;;;;;;;;;;;;;;;21.65;62.22;102025.03;7398898;19;1764;-42
2022/10/07 00:29:15;;;;;;;;;;;;;;;21.67;62.45;102033.84;7396987;19;1615;-43
2022/10/07 00:31:53;;;;;;;;;;;;;;;21.64;62.31;102028.69;7397510;19;1836;-42
2022/10/07 00:39:47;;;;;;;;;;;;;;;21.62;62.73;102031.50;7397347;19;2052;-43
2022/10/07 00:42:24;;;;;;;;;;;;;;;21.59;62.67;102029.06;7399822;19;1871;-42
2022/10/07 00:44:55;;;;;;;;;;;;;;;21.64;62.39;102050.22;7399317;19;1957;-42
2022/10/07 00:47:27;;;;;;;;;;;;;;;21.66;62.09;102034.81;7400513;19;1830;-42
2022/10/07 00:50:01;;;;;;;;;;;;;;;21.61;62.46;102026.25;7406093;19;1846;-42
2022/10/07 00:52:33;;;;;;;;;;;;;;;21.59;62.35;102028.22;7406291;19;1842;-42
2022/10/07 00:55:05;;;;;;;;;;;;;;;21.61;62.32;102043.25;7406003;19;1556;-42
2022/10/07 00:57:50;;;;;;;;;;;;;;;21.60;62.33;102038.00;7406605;19;1903;-43
2022/10/07 01:00:26;;;;;;;;;;;;;;;21.58;62.55;102042.66;7406454;19;1838;-42
2022/10/07 01:02:54;;;;;;;;;;;;;;;21.60;62.22;102027.22;7407397;19;1858;-42
2022/10/07 01:05:22;;;;;;;;;;;;;;;21.61;62.44;102034.34;7404723;19;1939;-42
2022/10/07 01:07:52;;;;;;;;;;;;;;;21.58;62.21;102026.50;7405772;19;1715;-43
2022/10/07 01:10:25;;;;;;;;;;;;;;;21.58;62.21;102013.03;7405336;19;1965;-43
2022/10/07 01:13:08;;;;;;;;;;;;;;;21.58;62.03;102019.25;7406182;19;1553;-43
2022/10/07 01:15:51;;;;;;;;;;;;;;;21.60;62.02;102027.22;7406568;19;1804;-42
2022/10/07 01:18:35;;;;;;;;;;;;;;;21.56;62.02;102015.00;7406079;19;2001;-42
2022/10/07 01:21:07;;;;;;;;;;;;;;;21.58;62.05;102023.81;7407144;19;1631;-43
2022/10/07 01:23:52;;;;;;;;;;;;;;;21.56;62.30;102026.59;7406027;19;2034;-43
2022/10/07 01:26:41;;;;;;;;;;;;;;;21.58;62.20;102027.34;7406617;19;1803;-43
2022/10/07 01:29:25;;;;;;;;;;;;;;;21.55;61.99;102019.53;7403728;19;1819;-43
2022/10/07 01:31:58;;;;;;;;;;;;;;;21.58;62.13;102024.66;7402581;19;1862;-43
2022/10/07 01:34:31;;;;;;;;;;;;;;;21.56;62.05;102031.16;7405259;19;1445;-43
2022/10/07 01:37:01;;;;;;;;;;;;;;;21.60;61.88;102021.84;7405202;19;1840;-42
2022/10/07 01:39:32;;;;;;;;;;;;;;;21.59;61.94;102026.38;7406569;19;1912;-43
2022/10/07 01:42:05;;;;;;;;;;;;;;;21.54;61.99;102022.34;7405080;19;1624;-43
2022/10/07 01:44:40;;;;;;;;;;;;;;;21.56;61.86;102033.84;7403543;19;1739;-43
2022/10/07 01:47:10;;;;;;;;;;;;;;;21.57;62.03;102020.25;7403864;19;1823;-42
2022/10/07 01:49:39;;;;;;;;;;;;;;;21.54;61.91;102015.09;7402941;19;2052;-43
2022/10/07 01:52:22;;;;;;;;;;;;;;;21.58;61.82;102029.19;7400693;19;1849;-42
2022/10/07 01:55:02;;;;;;;;;;;;;;;21.55;61.74;102029.44;7403399;19;1658;-43
2022/10/07 01:57:46;;;;;;;;;;;;;;;21.53;61.85;102028.72;7403771;19;1513;-43
2022/10/07 02:02:50;;;;;;;;;;;;;;;21.53;61.99;102039.47;7397702;19;1434;-58
2022/10/07 02:05:26;;;;;;;;;;;;;;;21.57;61.67;102032.88;7404569;19;1740;-58
2022/10/07 02:08:03;;;;;;;;;;;;;;;21.52;61.85;102041.28;7401553;19;1540;-57
2022/10/07 02:10:35;;;;;;;;;;;;;;;21.54;61.58;102041.19;7403587;19;1861;-58
2022/10/07 02:13:11;;;;;;;;;;;;;;;21.54;61.79;102047.41;7407451;19;1559;-58
2022/10/07 02:15:43;;;;;;;;;;;;;;;21.54;61.87;102049.25;7407018;19;1473;-68
2022/10/07 02:18:14;;;;;;;;;;;;;;;21.52;61.90;102027.84;7408246;19;1284;-69
2022/10/07 02:20:45;;;;;;;;;;;;;;;21.55;61.61;102034.84;7405978;19;1571;-68
2022/10/07 02:23:15;;;;;;;;;;;;;;;21.55;61.84;102034.84;7409656;19;1660;-69
2022/10/07 02:25:46;;;;;;;;;;;;;;;21.54;61.51;102046.56;7407922;19;1798;-69
2022/10/07 02:28:18;;;;;;;;;;;;;;;21.54;61.52;102046.56;7407054;19;1549;-68
2022/10/07 02:30:49;;;;;;;;;;;;;;;21.55;61.55;102029.44;7405065;19;1857;-69
2022/10/07 02:33:19;;;;;;;;;;;;;;;21.54;61.59;102044.72;7409326;19;961;-68
2022/10/07 02:35:51;;;;;;;;;;;;;;;21.52;61.66;102040.44;7406845;19;1665;-68
2022/10/07 02:38:20;;;;;;;;;;;;;;;21.53;61.74;102047.56;7407607;19;1524;-68
2022/10/07 02:40:54;;;;;;;;;;;;;;;21.50;61.58;102050.47;7406738;19;1296;-69
2022/10/07 02:43:29;;;;;;;;;;;;;;;21.51;61.48;102049.50;7407154;19;1552;-68
2022/10/07 02:46:02;;;;;;;;;;;;;;;21.50;61.44;102063.94;7408195;19;1327;-68
2022/10/07 02:48:33;;;;;;;;;;;;;;;21.51;61.54;102055.75;7406676;19;1289;-68
2022/10/07 02:51:04;;;;;;;;;;;;;;;21.51;61.51;102073.72;7407493;19;1868;-58
2022/10/07 02:53:34;;;;;;;;;;;;;;;21.48;61.58;102071.28;7405747;19;1430;-58
2022/10/07 02:56:04;;;;;;;;;;;;;;;21.50;61.51;102066.63;7404803;19;1545;-58
2022/10/07 02:58:35;;;;;;;;;;;;;;;21.49;61.61;102078.34;7403624;19;1626;-58
2022/10/07 03:01:04;;;;;;;;;;;;;;;21.49;61.53;102071.16;7402982;19;1439;-58
2022/10/07 03:03:32;;;;;;;;;;;;;;;21.47;61.46;102064.16;7402244;19;1352;-58
2022/10/07 03:06:00;;;;;;;;;;;;;;;21.49;61.25;102062.19;7404847;19;1498;-58
2022/10/07 03:08:29;;;;;;;;;;;;;;;21.50;61.18;102058.53;7405007;19;1417;-58
2022/10/07 03:10:57;;;;;;;;;;;;;;;21.47;61.55;102064.16;7401001;19;1850;-58
2022/10/07 03:13:26;;;;;;;;;;;;;;;21.44;61.40;102046.41;7403418;19;1386;-58
2022/10/07 03:15:56;;;;;;;;;;;;;;;21.47;61.42;102053.38;7403472;19;1345;-58
2022/10/07 03:18:28;;;;;;;;;;;;;;;21.40;61.35;102037.69;7404369;19;1348;-69
2022/10/07 03:20:57;;;;;;;;;;;;;;;21.55;61.26;102035.69;7407482;19;943;-67
2022/10/07 03:23:25;;;;;;;;;;;;;;;21.55;61.76;102043.75;7404055;19;1642;-67
2022/10/07 03:25:54;;;;;;;;;;;;;;;21.55;61.75;102045.59;7405538;19;1379;-68
2022/10/07 03:28:22;;;;;;;;;;;;;;;21.52;61.81;102045.81;7404963;19;1244;-67
2022/10/07 03:30:52;;;;;;;;;;;;;;;21.55;61.81;102048.28;7406310;19;1855;-67
2022/10/07 03:33:25;;;;;;;;;;;;;;;21.52;61.96;102048.50;7404787;19;1763;-68
2022/10/07 03:35:53;;;;;;;;;;;;;;;21.51;62.03;102044.13;7406067;19;1420;-68
2022/10/07 03:38:22;;;;;;;;;;;;;;;21.51;62.04;102044.97;7407729;19;1754;-68
2022/10/07 03:40:50;;;;;;;;;;;;;;;21.53;62.00;102026.03;7405548;19;1701;-67
2022/10/07 03:43:19;;;;;;;;;;;;;;;21.53;62.13;102036.78;7406194;19;1557;-68
2022/10/07 03:45:47;;;;;;;;;;;;;;;21.51;62.08;102044.97;7404229;19;1304;-68
2022/10/07 03:48:15;;;;;;;;;;;;;;;21.54;62.17;102033.09;7406348;19;1675;-67
2022/10/07 03:50:51;;;;;;;;;;;;;;;21.54;62.18;102027.72;7405487;19;1846;-67
2022/10/07 03:53:20;;;;;;;;;;;;;;;21.54;62.25;102038.47;7402431;19;1539;-58
2022/10/07 03:55:48;;;;;;;;;;;;;;;21.50;62.20;102035.16;7401977;19;1593;-58
2022/10/07 03:58:17;;;;;;;;;;;;;;;21.54;62.05;102033.09;7402716;19;1636;-58
2022/10/07 04:00:46;;;;;;;;;;;;;;;21.53;62.26;102028.72;7401043;19;1475;-59
2022/10/07 04:03:17;;;;;;;;;;;;;;;21.57;62.21;102032.88;7399805;19;1399;-58
2022/10/07 04:05:46;;;;;;;;;;;;;;;21.53;61.91;102013.41;7399697;19;1728;-58
2022/10/07 04:08:17;;;;;;;;;;;;;;;21.59;61.29;102014.75;7402466;19;1272;-58
2022/10/07 04:10:45;;;;;;;;;;;;;;;21.61;61.28;102029.81;7401951;19;1857;-57
2022/10/07 04:13:14;;;;;;;;;;;;;;;21.58;62.01;102027.34;7401573;19;1271;-58
2022/10/07 04:15:42;;;;;;;;;;;;;;;21.60;62.14;102038.00;7402438;19;1390;-58
2022/10/07 04:18:12;;;;;;;;;;;;;;;21.62;61.86;102036.03;7402128;19;1330;-59
2022/10/07 04:20:40;;;;;;;;;;;;;;;21.60;62.00;102038.00;7402070;19;1299;-58
2022/10/07 04:23:08;;;;;;;;;;;;;;;21.67;61.99;102044.63;7408197;19;1670;-55
2022/10/07 04:25:43;;;;;;;;;;;;;;;21.69;61.96;102050.75;7399302;19;1577;-55
2022/10/07 04:28:16;;;;;;;;;;;;;;;21.62;59.33;102053.03;7408342;19;1372;-55
2022/10/07 04:30:49;;;;;;;;;;;;;;;21.63;61.30;102044.00;7409351;19;1871;-56
2022/10/07 04:33:18;;;;;;;;;;;;;;;21.61;61.53;102040.56;7408911;19;1336;-55
2022/10/07 04:35:47;;;;;;;;;;;;;;;21.66;61.62;102050.97;7406963;19;1703;-55
2022/10/07 04:38:16;;;;;;;;;;;;;;;21.65;61.94;102060.03;7408432;19;1443;-59
2022/10/07 04:40:48;;;;;;;;;;;;;;;21.72;61.32;102058.56;7407849;19;1776;-56
2022/10/07 04:43:18;;;;;;;;;;;;;;;21.77;61.32;102064.44;7408537;19;1315;-57
2022/10/07 04:45:46;;;;;;;;;;;;;;;21.74;61.41;102063.81;7407979;19;1277;-60
2022/10/07 04:48:16;;;;;;;;;;;;;;;21.70;61.31;102091.97;7405840;19;1513;-58
2022/10/07 04:50:44;;;;;;;;;;;;;;;21.63;61.93;102079.00;7408546;19;1324;-58
2022/10/07 04:53:13;;;;;;;;;;;;;;;21.62;62.12;102079.09;7404485;19;1857;-60
2022/10/07 04:55:42;;;;;;;;;;;;;;;21.62;62.14;102085.34;7407846;19;1374;-58
2022/10/07 04:58:14;;;;;;;;;;;;;;;21.60;62.12;102090.00;7406880;19;1371;-59
2022/10/07 05:00:46;;;;;;;;;;;;;;;21.62;62.13;102084.50;7406028;19;1368;-60
2022/10/07 05:03:15;;;;;;;;;;;;;;;21.74;61.97;102082.66;7404804;19;1432;-56
2022/10/07 05:05:44;;;;;;;;;;;;;;;21.80;61.64;102093.78;7404924;19;1509;-56
2022/10/07 05:08:13;;;;;;;;;;;;;;;21.76;61.42;102094.16;7401765;19;1679;-56
2022/10/07 05:10:42;;;;;;;;;;;;;;;21.68;61.86;102088.53;7401827;19;1697;-56
2022/10/07 05:13:11;;;;;;;;;;;;;;;21.62;61.86;102092.56;7405035;19;1839;-56
2022/10/07 05:15:49;;;;;;;;;;;;;;;21.56;61.77;102087.66;7404786;19;1672;-56
2022/10/07 05:18:17;;;;;;;;;;;;;;;21.56;61.54;102099.28;7406350;19;1684;-56
2022/10/07 05:20:46;;;;;;;;;;;;;;;21.52;61.63;102088.88;7408210;19;1429;-56
2022/10/07 05:23:15;;;;;;;;;;;;;;;21.52;61.50;102095.13;7408116;19;1154;-56
2022/10/07 05:25:43;;;;;;;;;;;;;;;21.56;61.47;102095.75;7407252;19;1366;-56
2022/10/07 05:28:11;;;;;;;;;;;;;;;21.58;61.08;102085.72;7405879;19;1578;-56
2022/10/07 05:30:42;;;;;;;;;;;;;;;21.62;60.99;102096.09;7408234;19;1196;-56
2022/10/07 05:33:11;;;;;;;;;;;;;;;21.61;60.97;102090.88;7404106;19;1853;-56
2022/10/07 05:35:39;;;;;;;;;;;;;;;21.65;60.97;102084.25;7407556;19;1309;-56
2022/10/07 05:38:08;;;;;;;;;;;;;;;21.63;60.51;102091.59;7404827;19;1268;-56
2022/10/07 05:40:36;;;;;;;;;;;;;;;21.66;60.59;102110.19;7408026;19;1311;-56
2022/10/07 05:43:04;;;;;;;;;;;;;;;21.68;60.80;102105.53;7405217;19;1612;-59
2022/10/07 05:45:33;;;;;;;;;;;;;;;21.85;60.48;102107.75;7401324;19;1444;-56
2022/10/07 05:48:04;;;;;;;;;;;;;;;21.84;59.18;102119.53;7401283;19;1321;-56
2022/10/07 05:50:32;;;;;;;;;;;;;;;21.86;56.91;102130.16;7404585;19;1457;-56
2022/10/07 05:53:00;;;;;;;;;;;;;;;21.80;56.71;102126.09;7403821;19;1863;-57
2022/10/07 05:55:29;;;;;;;;;;;;;;;21.80;55.22;102126.09;7406760;19;1259;-57
2022/10/07 05:57:57;;;;;;;;;;;;;;;21.78;54.08;102125.38;7406639;19;1347;-56
2022/10/07 06:00:25;;;;;;;;;;;;;;;21.77;53.78;102137.13;7406382;19;1474;-57
2022/10/07 06:02:54;;;;;;;;;;;;;;;21.74;53.18;102125.75;7404535;19;1407;-57
2022/10/07 06:05:24;;;;;;;;;;;;;;;21.77;53.33;102131.75;7404024;19;1370;-56
2022/10/07 06:07:53;;;;;;;;;;;;;;;21.71;53.49;102129.53;7405228;19;1681;-56
2022/10/07 06:13:11;;;;;;;;;;;;;;;21.80;53.26;102125.25;7404608;19;1858;-56
2022/10/07 06:15:40;;;;;;;;;;;;;;;21.81;52.31;102140.47;7407047;19;1612;-57
2022/10/07 06:18:08;;;;;;;;;;;;;;;21.81;53.15;102127.84;7404411;19;1529;-56
2022/10/07 06:20:39;;;;;;;;;;;;;;;21.80;52.58;102120.72;7403957;19;1675;-56
2022/10/07 06:23:07;;;;;;;;;;;;;;;21.77;51.93;102126.38;7405108;19;1740;-56
2022/10/07 06:25:36;;;;;;;;;;;;;;;21.71;49.10;102113.41;7403161;19;1592;-58
2022/10/07 06:28:04;;;;;;;;;;;;;;;21.71;50.47;102121.47;7404694;19;1526;-57
2022/10/07 06:30:32;;;;;;;;;;;;;;;21.71;50.30;102131.38;7403760;19;1429;-57
2022/10/07 06:33:00;;;;;;;;;;;;;;;21.67;51.42;102117.31;7402763;19;1864;-57
2022/10/07 06:35:29;;;;;;;;;;;;;;;21.70;50.89;102117.03;7401591;19;1580;-57
2022/10/07 06:38:00;;;;;;;;;;;;;;;21.74;50.58;102115.81;7400182;19;1549;-57
2022/10/07 06:40:28;;;;;;;;;;;;;;;21.69;51.08;102118.03;7404848;19;1837;-57
2022/10/07 06:42:56;;;;;;;;;;;;;;;21.74;50.21;102106.91;7404937;19;1752;-57
2022/10/07 06:45:25;;;;;;;;;;;;;;;21.77;51.01;102114.75;7402035;19;1902;-57
2022/10/07 06:47:53;;;;;;;;;;;;;;;21.82;50.99;102132.22;7404934;19;1538;-56
2022/10/07 06:50:22;;;;;;;;;;;;;;;21.88;50.75;102119.28;7403253;19;1509;-57
2022/10/07 06:52:50;;;;;;;;;;;;;;;21.88;50.61;102132.75;7402110;19;1860;-57
2022/10/07 06:55:21;;;;;;;;;;;;;;;21.85;50.50;102106.91;7403967;19;1583;-57
2022/10/07 06:57:49;;;;;;;;;;;;;;;21.87;50.70;102104.09;7403536;19;1550;-56
2022/10/07 07:00:17;;;;;;;;;;;;;;;21.88;51.58;102105.81;7403929;19;1541;-57
2022/10/07 07:02:46;;;;;;;;;;;;;;;21.90;51.46;102115.47;7402160;19;1756;-56
2022/10/07 07:05:18;;;;;;;;;;;;;;;21.95;51.78;102117.81;7403027;19;1787;-57
2022/10/07 07:07:46;;;;;;;;;;;;;;;21.94;51.08;102121.47;7402874;19;1718;-56
2022/10/07 07:10:14;;;;;;;;;;;;;;;21.97;51.73;102115.88;7401570;19;1497;-57
2022/10/07 07:12:45;;;;;;;;;;;;;;;21.98;51.51;102118.41;7401096;19;1866;-57
2022/10/07 07:15:13;;;;;;;;;;;;;;;21.98;51.38;102126.50;7404153;19;1671;-56
2022/10/07 07:17:42;;;;;;;;;;;;;;;22.04;51.50;102123.34;7402455;19;1620;-58
2022/10/07 07:20:11;;;;;;;;;;;;;;;22.00;51.55;102129.06;7399094;19;1570;-56
2022/10/07 07:22:40;;;;;;;;;;;;;;;22.12;51.06;102125.38;7403388;19;1445;-56
2022/10/07 07:25:10;;;;;;;;;;;;;;;22.19;50.93;102125.78;7401848;19;1704;-57
2022/10/07 07:27:38;;;;;;;;;;;;;;;22.20;51.14;102128.34;7404034;19;1743;-55
2022/10/07 07:30:10;;;;;;;;;;;;;;;22.18;50.97;102130.31;7403064;19;1592;-56
2022/10/07 07:32:38;;;;;;;;;;;;;;;22.16;50.78;102121.50;7394867;19;1867;-56
2022/10/07 07:35:07;;;;;;;;;;;;;;;22.16;51.74;102123.31;7401516;19;1383;-57
2022/10/07 07:37:36;;;;;;;;;;;;;;;22.18;51.98;102113.25;7399135;19;1303;-60
2022/10/07 07:40:05;;;;;;;;;;;;;;;22.23;52.38;102125.38;7398866;19;1350;-56
2022/10/07 07:42:34;;;;;;;;;;;;;;;22.28;52.24;102124.19;7396346;19;1261;-73
2022/10/07 07:45:02;;;;;;;;;;;;;;;22.36;51.65;102113.63;7400665;19;1524;-69
2022/10/07 07:47:34;;;;;;;;;;;;;;;22.30;51.31;102108.75;7401222;19;1391;-72
2022/10/07 07:50:03;;;;;;;;;;;;;;;22.27;51.85;102117.09;7398474;19;1512;-71
2022/10/07 07:52:32;;;;;;;;;;;;;;;22.19;51.02;102115.00;7400761;19;1869;-73
2022/10/07 07:55:01;;;;;;;;;;;;;;;22.19;52.01;102115.00;7402181;19;1627;-69
2022/10/07 07:57:31;;;;;;;;;;;;;;;22.15;50.76;102103.59;7402931;19;1470;-73
2022/10/07 07:59:59;;;;;;;;;;;;;;;22.09;51.23;102097.84;7403102;19;1300;-72
2022/10/07 08:02:27;;;;;;;;;;;;;;;22.16;49.23;102116.09;7400180;19;1462;-72
2022/10/07 08:04:58;;;;;;;;;;;;;;;22.26;50.75;102109.97;7401821;19;1334;-69
2022/10/07 08:07:31;;;;;;;;;;;;;;;22.33;50.74;102112.06;7400980;19;1714;-71
2022/10/07 08:10:00;;;;;;;;;;;;;;;22.27;50.95;102099.09;7405170;19;1358;-70
2022/10/07 08:12:28;;;;;;;;;;;;;;;22.28;51.27;102103.47;7400989;19;1864;-70
2022/10/07 08:14:56;;;;;;;;;;;;;;;22.31;51.41;102111.34;7403563;19;1660;-71
2022/10/07 08:17:25;;;;;;;;;;;;;;;22.34;52.29;102099.44;7403241;19;1640;-72
2022/10/07 08:19:54;;;;;;;;;;;;;;;22.21;50.68;102105.78;7403197;19;1752;-71
2022/10/07 08:22:25;;;;;;;;;;;;;;;21.80;49.05;102091.09;7403759;19;1624;-71
2022/10/07 08:24:55;;;;;;;;;;;;;;;21.72;49.10;102098.09;7404690;19;1593;-71
2022/10/07 08:27:23;;;;;;;;;;;;;;;21.58;49.37;102102.72;7404761;19;958;-71
2022/10/07 08:29:51;;;;;;;;;;;;;;;21.55;48.09;102083.28;7405332;19;1282;-71
2022/10/07 08:32:20;;;;;;;;;;;;;;;21.61;47.61;102104.34;7403210;19;1853;-71
2022/10/07 08:34:48;;;;;;;;;;;;;;;21.72;48.12;102107.00;7403805;19;1553;-71
2022/10/07 08:37:16;;;;;;;;;;;;;;;21.73;48.50;102081.81;7401716;19;1565;-70
2022/10/07 08:39:47;;;;;;;;;;;;;;;21.67;47.79;102085.00;7402188;19;1567;-70
2022/10/07 08:42:22;;;;;;;;;;;;;;;21.74;47.33;102083.50;7403266;19;1649;-70
2022/10/07 08:44:51;;;;;;;;;;;;;;;21.74;47.87;102088.91;7400354;19;1481;-71
2022/10/07 08:47:21;;;;;;;;;;;;;;;21.77;48.64;102069.81;7402826;19;1347;-71
2022/10/07 08:49:55;;;;;;;;;;;;;;;21.79;47.84;102086.72;7404426;19;1523;-71
2022/10/07 08:52:31;;;;;;;;;;;;;;;21.79;46.97;102075.94;7402227;19;1874;-71
2022/10/07 08:55:03;;;;;;;;;;;;;;;21.73;46.97;102087.22;7402044;19;1527;-70
2022/10/07 08:57:38;;;;;;;;;;;;;;;21.81;46.79;102086.59;7402710;19;1791;-71
2022/10/07 09:00:08;;;;;;;;;;;;;;;21.82;47.09;102064.06;7404066;19;1555;-71
2022/10/07 09:02:40;;;;;;;;;;;;;;;21.80;48.82;102085.72;7399282;19;1542;-76
2022/10/07 09:05:16;;;;;;;;;;;;;;;21.89;48.63;102072.53;7400948;19;1450;-71
2022/10/07 09:07:47;;;;;;;;;;;;;;;21.87;47.87;102083.41;7402215;19;1599;-71
2022/10/07 09:10:25;;;;;;;;;;;;;;;21.82;47.55;102075.69;7409584;19;1533;-71
2022/10/07 09:12:56;;;;;;;;;;;;;;;21.85;46.79;102066.53;7409490;19;1861;-71
2022/10/07 09:15:32;;;;;;;;;;;;;;;21.84;47.14;102057.59;7408397;19;1859;-71
2022/10/07 09:18:04;;;;;;;;;;;;;;;22.00;49.12;102076.06;7408354;19;1610;-63
2022/10/07 09:20:35;;;;;;;;;;;;;;;22.01;48.05;102068.84;7400738;19;1644;-57
2022/10/07 09:23:06;;;;;;;;;;;;;;;22.00;48.21;102049.13;7403083;19;1538;-57
2022/10/07 09:25:40;;;;;;;;;;;;;;;22.17;49.33;102060.38;7400662;19;2053;-58
2022/10/07 09:28:08;;;;;;;;;;;;;;;22.20;49.84;102058.28;7399724;19;1313;-57
2022/10/07 09:30:37;;;;;;;;;;;;;;;22.21;50.98;102051.91;7404105;19;1453;-57
2022/10/07 09:33:11;;;;;;;;;;;;;;;22.27;50.45;102050.59;7400147;19;1857;-57
2022/10/07 09:35:39;;;;;;;;;;;;;;;22.35;50.73;102060.75;7406170;19;1610;-58
2022/10/07 09:38:09;;;;;;;;;;;;;;;22.35;51.09;102040.03;7405005;19;1728;-56
2022/10/07 09:41:14;;;;;;;;;;;;;;;22.28;52.17;102038.81;7404677;19;1595;-57
2022/10/07 09:43:33;;;;;;;;;;;;;;;22.31;52.28;102043.09;7405962;19;1411;-57
2022/10/07 09:46:02;;;;;;;;;;;;;;;22.30;51.82;102036.84;7406400;19;1520;-56
2022/10/07 09:48:33;;;;;;;;;;;;;;;22.21;52.97;102034.88;7399842;19;1561;-57
2022/10/07 09:51:14;;;;;;;;;;;;;;;22.32;52.54;102023.25;7403610;19;1470;-57
2022/10/07 09:53:56;;;;;;;;;;;;;;;22.39;52.50;102021.75;7403032;19;1851;-59
2022/10/07 09:56:36;;;;;;;;;;;;;;;22.47;52.34;102024.69;7406893;19;1537;-59
2022/10/07 09:59:22;;;;;;;;;;;;;;;22.45;52.79;102021.25;7403362;19;1538;-59
2022/10/07 10:01:52;;;;;;;;;;;;;;;22.48;51.27;102015.59;7402519;19;1747;-57
2022/10/07 10:04:22;;;;;;;;;;;;;;;22.23;48.78;102014.06;7403830;19;1648;-58
2022/10/07 10:06:51;;;;;;;;;;;;;;;22.30;51.20;102000.97;7404493;19;1652;-57
2022/10/07 10:09:22;;;;;;;;;;;;;;;22.21;47.22;102003.41;7406810;19;1532;-58
2022/10/07 10:12:05;;;;;;;;;;;;;;;22.27;48.56;102007.47;7405165;19;1712;-57
2022/10/07 10:14:38;;;;;;;;;;;;;;;22.36;48.83;101990.53;7403583;19;1861;-58
2022/10/07 10:17:06;;;;;;;;;;;;;;;22.50;48.19;101999.28;7404362;19;1683;-58
2022/10/07 10:19:35;;;;;;;;;;;;;;;22.71;48.70;102010.13;7405095;19;1655;-57
2022/10/07 10:22:03;;;;;;;;;;;;;;;22.72;49.65;101982.16;7405602;19;1683;-58
2022/10/07 10:27:18;;;;;;;;;;;;;;;22.75;50.41;101976.50;7407858;19;1236;-58
2022/10/07 10:29:50;;;;;;;;;;;;;;;22.88;50.44;101969.09;7406011;19;1615;-64
2022/10/07 10:32:33;;;;;;;;;;;;;;;22.53;49.31;101966.69;7405893;19;1747;-72
2022/10/07 10:35:05;;;;;;;;;;;;;;;22.67;50.75;101952.06;7405302;19;1838;-72
2022/10/07 10:37:44;;;;;;;;;;;;;;;22.77;50.89;101952.97;7406001;19;1441;-67
2022/10/07 10:40:20;;;;;;;;;;;;;;;22.87;51.25;101955.72;7405868;19;1577;-72
2022/10/07 10:42:55;;;;;;;;;;;;;;;22.95;51.13;101931.66;7407984;19;1663;-73
2022/10/07 10:45:32;;;;;;;;;;;;;;;23.07;52.59;101940.53;7406638;19;1594;-67
2022/10/07 10:48:10;;;;;;;;;;;;;;;23.07;52.85;101937.84;6890976;19;9999915;-70
2022/10/07 10:50:45;;;;;;;;;;;;;;;23.08;53.36;101929.63;6883284;19;9999815;-70
2022/10/07 10:53:20;;;;;;;;;;;;;;;23.06;53.76;101930.72;7401448;19;1849;-72
2022/10/07 10:56:02;;;;;;;;;;;;;;;22.97;54.08;101938.59;7400849;19;1362;-65
2022/10/07 10:58:39;;;;;;;;;;;;;;;22.91;54.52;101909.47;7396389;19;1529;-61
2022/10/07 11:01:13;;;;;;;;;;;;;;;22.95;54.56;101899.28;7395481;19;1533;-73
2022/10/07 11:03:50;;;;;;;;;;;;;;;22.87;54.29;101902.63;7400613;19;1520;-57
2022/10/07 11:06:19;;;;;;;;;;;;;;;22.85;54.33;101904.63;7398700;19;1836;-57
2022/10/07 11:08:50;;;;;;;;;;;;;;;22.87;54.41;101880.22;7396707;19;1410;-74
2022/10/07 11:11:20;;;;;;;;;;;;;;;22.92;53.98;101886.91;7399269;19;1450;-62
2022/10/07 11:13:54;;;;;;;;;;;;;;;22.89;54.73;101878.22;7397273;19;1862;-57
2022/10/07 11:16:26;;;;;;;;;;;;;;;22.96;54.77;101874.00;7403890;19;1664;-56
2022/10/07 11:18:57;;;;;;;;;;;;;;;22.94;54.85;101866.06;7401580;19;1725;-59
2022/10/07 11:21:28;;;;;;;;;;;;;;;22.91;54.78;101868.16;7401953;19;1785;-57
2022/10/07 11:24:01;;;;;;;;;;;;;;;22.91;54.91;101870.88;7403379;19;1454;-57
2022/10/07 11:26:32;;;;;;;;;;;;;;;23.05;59.55;101861.59;7402254;19;1612;-56
2022/10/07 11:29:06;;;;;;;;;;;;;;;22.98;56.46;101864.78;7401301;19;1640;-58
2022/10/07 11:31:37;;;;;;;;;;;;;;;23.02;56.42;101855.47;7397919;19;1443;-61
2022/10/07 11:34:13;;;;;;;;;;;;;;;23.09;55.42;101844.13;7398615;19;1850;-59
2022/10/07 11:36:45;;;;;;;;;;;;;;;23.13;55.16;101840.16;7404194;19;1460;-74
2022/10/07 11:39:14;;;;;;;;;;;;;;;23.02;55.27;101838.44;7405129;19;1355;-57
2022/10/07 11:41:48;;;;;;;;;;;;;;;22.92;55.53;101846.47;7401513;19;1730;-57
2022/10/07 11:44:22;;;;;;;;;;;;;;;22.78;53.40;101831.50;7400433;19;1605;-58
2022/10/07 11:46:52;;;;;;;;;;;;;;;22.74;50.91;101829.19;7400644;19;1699;-60
2022/10/07 11:49:23;;;;;;;;;;;;;;;22.70;50.69;101823.22;7404922;19;1628;-74
2022/10/07 11:51:55;;;;;;;;;;;;;;;22.74;51.97;101818.38;7403148;19;1461;-71
2022/10/07 11:54:26;;;;;;;;;;;;;;;22.81;50.67;101808.78;7398648;19;1931;-58
2022/10/07 11:56:56;;;;;;;;;;;;;;;22.78;52.61;101814.44;7399812;19;1704;-60
2022/10/07 11:59:45;;;;;;;;;;;;;;;22.62;50.42;101829.28;7402811;19;1729;-61
2022/10/07 12:02:28;;;;;;;;;;;;;;;22.79;48.70;101827.78;7399600;19;1648;-75
2022/10/07 12:04:58;;;;;;;;;;;;;;;22.79;51.17;101803.53;7404679;19;1500;-70
2022/10/07 12:07:36;;;;;;;;;;;;;;;22.64;49.84;101818.34;7404866;19;1412;-71
2022/10/07 12:10:23;;;;;;;;;;;;;;;22.76;49.38;101833.47;7404123;19;1826;-58
2022/10/07 12:12:53;;;;;;;;;;;;;;;22.70;49.89;101822.34;7401821;19;1300;-56
2022/10/07 12:15:29;;;;;;;;;;;;;;;22.60;50.30;101814.19;7399336;19;1862;-58
2022/10/07 12:17:58;;;;;;;;;;;;;;;22.59;50.43;101826.84;7405073;19;1677;-67
2022/10/07 12:20:38;;;;;;;;;;;;;;;22.64;48.98;101821.91;7403452;19;1693;-65
2022/10/07 12:23:22;;;;;;;;;;;;;;;22.72;48.93;101804.19;7400297;19;1690;-68
2022/10/07 12:25:52;;;;;;;;;;;;;;;22.60;48.15;101812.38;7403198;19;1951;-77
2022/10/07 12:28:24;;;;;;;;;;;;;;;22.66;49.67;101804.72;7402085;19;1599;-77
2022/10/07 12:30:56;;;;;;;;;;;;;;;22.75;50.66;101812.03;7403165;19;1748;-57
2022/10/07 12:33:31;;;;;;;;;;;;;;;22.88;48.98;101799.16;7402225;19;1861;-65
2022/10/07 12:35:59;;;;;;;;;;;;;;;22.66;48.03;101810.13;7401948;19;1562;-62
2022/10/07 12:38:29;;;;;;;;;;;;;;;22.54;48.28;101804.84;7400193;19;1664;-63
2022/10/07 12:41:09;;;;;;;;;;;;;;;22.62;49.34;101807.72;7404245;19;1376;-75
2022/10/07 12:43:47;;;;;;;;;;;;;;;22.73;49.80;101798.66;7408608;19;1347;-61
2022/10/07 12:46:20;;;;;;;;;;;;;;;22.83;50.40;101796.00;7411325;19;1440;-67
2022/10/07 12:48:53;;;;;;;;;;;;;;;22.86;50.47;101806.53;7412126;19;1299;-72
2022/10/07 12:51:25;;;;;;;;;;;;;;;22.89;50.09;101800.03;7410946;19;1763;-72
2022/10/07 12:53:54;;;;;;;;;;;;;;;22.82;50.53;101795.16;7408912;19;1867;-64
2022/10/07 12:56:24;;;;;;;;;;;;;;;22.78;49.07;101807.22;7409556;19;1608;-58
2022/10/07 13:01:59;;;;;;;;;;;;;;;22.58;48.50;101784.72;7412094;19;1530;-71
2022/10/07 13:04:40;;;;;;;;;;;;;;;22.60;48.68;101779.16;7407619;19;1566;-73
2022/10/07 13:07:27;;;;;;;;;;;;;;;22.64;49.10;101776.06;7412124;19;1559;-73
2022/10/07 13:10:09;;;;;;;;;;;;;;;22.68;49.94;101765.00;7407229;19;1566;-63
2022/10/07 13:12:42;;;;;;;;;;;;;;;22.64;49.12;101767.13;7404901;19;1887;-69
2022/10/07 13:15:17;;;;;;;;;;;;;;;22.74;49.47;101783.34;7408186;19;1866;-73
2022/10/07 13:17:49;;;;;;;;;;;;;;;22.74;47.85;101775.25;7408147;19;1303;-77
2022/10/07 13:20:28;;;;;;;;;;;;;;;22.80;49.36;101780.09;7406166;19;1420;-56
2022/10/07 13:22:57;;;;;;;;;;;;;;;22.76;49.07;101778.66;7407972;19;1398;-69
2022/10/07 13:25:26;;;;;;;;;;;;;;;22.89;49.51;101775.75;7411362;19;1410;-77
2022/10/07 13:27:56;;;;;;;;;;;;;;;22.88;48.11;101761.41;7409930;19;1185;-59